Aviation Digital Data Service (ADDS)

Output produced by METARs form (1524 UTC 18 December 2014)
found at http://www.aviationweather.gov/adds/metars/
 
KLGA 181443Z 1815/1912 30019G25KT P6SM FEW035 SCT080 
     FM182200 30013G20KT P6SM SCT050 
     FM190200 30012KT P6SM SCT050